LGAV/ATH METAR and TAF weather

Enter ICAO airport designator
Station Type Date Time Source
LGAV METAR 2021/01/16 02:20 UTC NOAA

LGAV 160220Z 35005KT 320V020 9999 FEW020 BKN035 06/05 Q1009 NOSIG


Station Type Date Time Source
LGAV Decoded METAR 2021/01/16 02:20 UTC NOAA

Athens Eleftherios Venizelos International Airport, Greece (LGAV) 37-56N 023-56E
Jan 15, 2021 - 09:20 PM EST / 2021.01.16 0220 UTC
Wind: from the N (350 degrees) at 6 MPH (5 KT) (direction variable):0
Visibility: greater than 7 mile(s):0
Sky conditions: mostly cloudy
Temperature: 42 F (6 C)
Dew Point: 41 F (5 C)
Relative Humidity: 93%
Pressure (altimeter): 29.80 in. Hg (1009 hPa)
ob: LGAV 160220Z 35005KT 320V020 9999 FEW020 BKN035 06/05 Q1009 NOSIG
cycle: 2

Station Type Date Time Source
LGAV TAF 2021/01/15 18:12 UTC NOAA

TAF TAF LGAV 151700Z 1518/1618 03015KT 9999 FEW020 BKN030 PROB40
TEMPO 1602/1618 5000 RA FEW018 BKN025 BKN070 PROB30
TEMPO 1603/1606 3000 SNRA BKN018 OVC070

Example: see airport list